sensor_id;sensor_type;location;lat;lon;timestamp;pressure;altitude;pressure_sealevel;temperature;humidity
21664;BME280;10993;52.510;13.456;2024-01-25T00:03:47;56653.94;;;-146.93;67.38
21664;BME280;10993;52.510;13.456;2024-01-25T00:08:47;56726.81;;;-146.93;68.56
21664;BME280;10993;52.510;13.456;2024-01-25T00:13:48;56714.66;;;-146.93;68.72
21664;BME280;10993;52.510;13.456;2024-01-25T00:18:49;56722.78;;;-146.93;69.98
21664;BME280;10993;52.510;13.456;2024-01-25T00:23:50;56747.06;;;-146.93;70.46
21664;BME280;10993;52.510;13.456;2024-01-25T00:28:50;56728.84;;;-146.93;70.99
21664;BME280;10993;52.510;13.456;2024-01-25T00:33:52;56743.03;;;-146.93;71.41
21664;BME280;10993;52.510;13.456;2024-01-25T00:38:53;56751.13;;;-146.93;71.12
21664;BME280;10993;52.510;13.456;2024-01-25T00:43:54;56568.88;;;-146.93;71.26
21664;BME280;10993;52.510;13.456;2024-01-25T00:48:56;56704.53;;;-146.93;71.40
21664;BME280;10993;52.510;13.456;2024-01-25T00:53:57;56745.03;;;-146.93;71.56
21664;BME280;10993;52.510;13.456;2024-01-25T00:58:57;56734.91;;;-146.93;71.60
21664;BME280;10993;52.510;13.456;2024-01-25T01:04:00;56751.13;;;-146.93;71.73
21664;BME280;10993;52.510;13.456;2024-01-25T01:09:00;56743.03;;;-146.93;71.34
21664;BME280;10993;52.510;13.456;2024-01-25T01:14:02;56696.44;;;-146.93;71.24
21664;BME280;10993;52.510;13.456;2024-01-25T01:19:03;56745.03;;;-146.93;71.27
21664;BME280;10993;52.510;13.456;2024-01-25T01:24:07;56755.16;;;-146.93;70.86
21664;BME280;10993;52.510;13.456;2024-01-25T01:29:07;56724.78;;;-146.93;70.76
21664;BME280;10993;52.510;13.456;2024-01-25T01:34:09;56732.91;;;-146.93;71.36
21664;BME280;10993;52.510;13.456;2024-01-25T01:39:10;56743.03;;;-146.93;70.53
21664;BME280;10993;52.510;13.456;2024-01-25T01:44:10;56686.31;;;-146.93;70.36
21664;BME280;10993;52.510;13.456;2024-01-25T01:49:13;56682.28;;;-146.93;70.32
21664;BME280;10993;52.510;13.456;2024-01-25T01:54:14;56734.91;;;-146.93;70.29
21664;BME280;10993;52.510;13.456;2024-01-25T01:59:15;56597.25;;;-146.93;70.73
21664;BME280;10993;52.510;13.456;2024-01-25T02:04:17;56726.81;;;-146.93;70.19
21664;BME280;10993;52.510;13.456;2024-01-25T02:09:17;56720.75;;;-146.93;70.25
21664;BME280;10993;52.510;13.456;2024-01-25T02:14:18;56651.91;;;-146.93;70.26
21664;BME280;10993;52.510;13.456;2024-01-25T02:19:19;56702.53;;;-146.93;70.16
21664;BME280;10993;52.510;13.456;2024-01-25T02:24:21;56706.56;;;-146.93;70.70
21664;BME280;10993;52.510;13.456;2024-01-25T02:29:22;57180.41;;;-146.93;70.40
21664;BME280;10993;52.510;13.456;2024-01-25T02:34:22;56712.66;;;-146.93;70.64
21664;BME280;10993;52.510;13.456;2024-01-25T02:39:24;56690.38;;;-146.93;70.13
21664;BME280;10993;52.510;13.456;2024-01-25T02:44:24;56734.91;;;-146.93;70.29
21664;BME280;10993;52.510;13.456;2024-01-25T02:49:25;56682.28;;;-146.93;70.44
21664;BME280;10993;52.510;13.456;2024-01-25T02:54:26;56726.81;;;-146.93;71.26
21664;BME280;10993;52.510;13.456;2024-01-25T02:59:27;56755.16;;;-146.93;71.58
21664;BME280;10993;52.510;13.456;2024-01-25T03:04:27;56769.34;;;-146.93;71.81
21664;BME280;10993;52.510;13.456;2024-01-25T03:09:29;56747.06;;;-146.93;72.08
21664;BME280;10993;52.510;13.456;2024-01-25T03:14:29;56745.03;;;-146.93;70.58
21664;BME280;10993;52.510;13.456;2024-01-25T03:19:29;56686.31;;;-146.93;70.16
21664;BME280;10993;52.510;13.456;2024-01-25T03:24:31;56745.03;;;-146.93;69.98
21664;BME280;10993;52.510;13.456;2024-01-25T03:29:32;56728.84;;;-146.93;69.27
21664;BME280;10993;52.510;13.456;2024-01-25T03:34:32;56753.16;;;-146.93;68.78
21664;BME280;10993;52.510;13.456;2024-01-25T03:39:34;56572.94;;;-146.93;68.88
21664;BME280;10993;52.510;13.456;2024-01-25T03:44:34;56706.56;;;-146.93;68.07
21664;BME280;10993;52.510;13.456;2024-01-25T03:49:35;56722.78;;;-146.93;68.82
21664;BME280;10993;52.510;13.456;2024-01-25T03:54:36;56678.22;;;-146.93;68.69
21664;BME280;10993;52.510;13.456;2024-01-25T03:59:37;56730.88;;;-146.93;68.94
21664;BME280;10993;52.510;13.456;2024-01-25T04:04:38;56882.72;;;-146.93;68.93
21664;BME280;10993;52.510;13.456;2024-01-25T04:09:40;56716.69;;;-146.93;68.88
21664;BME280;10993;52.510;13.456;2024-01-25T04:14:40;56558.75;;;-146.93;69.00
21664;BME280;10993;52.510;13.456;2024-01-25T04:19:41;56708.59;;;-146.93;68.81
21664;BME280;10993;52.510;13.456;2024-01-25T04:24:42;56678.22;;;-146.93;69.16
21664;BME280;10993;52.510;13.456;2024-01-25T04:29:44;56720.75;;;-146.93;69.26
21664;BME280;10993;52.510;13.456;2024-01-25T04:34:44;56700.50;;;-146.93;69.13
21664;BME280;10993;52.510;13.456;2024-01-25T04:39:48;56698.47;;;-146.93;69.93
21664;BME280;10993;52.510;13.456;2024-01-25T04:44:48;56722.78;;;-146.93;69.61
21664;BME280;10993;52.510;13.456;2024-01-25T04:49:48;56718.72;;;-146.93;69.70
21664;BME280;10993;52.510;13.456;2024-01-25T04:54:50;56700.50;;;-146.93;69.28
21664;BME280;10993;52.510;13.456;2024-01-25T04:59:50;56728.84;;;-146.93;69.91
21664;BME280;10993;52.510;13.456;2024-01-25T05:04:51;56738.97;;;-146.93;69.47
21664;BME280;10993;52.510;13.456;2024-01-25T05:09:52;56706.56;;;-146.93;69.78
21664;BME280;10993;52.510;13.456;2024-01-25T05:14:53;56564.84;;;-146.93;69.35
21664;BME280;10993;52.510;13.456;2024-01-25T05:19:53;56692.41;;;-146.93;70.08
21664;BME280;10993;52.510;13.456;2024-01-25T05:24:55;56694.41;;;-146.93;69.84
21664;BME280;10993;52.510;13.456;2024-01-25T05:29:55;56714.66;;;-146.93;69.49
21664;BME280;10993;52.510;13.456;2024-01-25T05:34:55;56716.69;;;-146.93;70.32
21664;BME280;10993;52.510;13.456;2024-01-25T05:39:57;56664.06;;;-146.93;70.53
21664;BME280;10993;52.510;13.456;2024-01-25T05:44:57;56585.09;;;-146.93;70.16
21664;BME280;10993;52.510;13.456;2024-01-25T05:49:58;56688.34;;;-146.93;69.11
21664;BME280;10993;52.510;13.456;2024-01-25T05:54:59;56680.25;;;-146.93;68.53
21664;BME280;10993;52.510;13.456;2024-01-25T05:59:59;56686.31;;;-146.93;68.42
21664;BME280;10993;52.510;13.456;2024-01-25T06:05:00;56682.28;;;-146.93;68.28
21664;BME280;10993;52.510;13.456;2024-01-25T06:10:02;56680.25;;;-146.93;68.81
21664;BME280;10993;52.510;13.456;2024-01-25T06:15:03;56694.41;;;-146.93;68.28
21664;BME280;10993;52.510;13.456;2024-01-25T06:20:04;56682.28;;;-146.93;66.78
21664;BME280;10993;52.510;13.456;2024-01-25T06:25:06;56690.38;;;-146.93;67.09
21664;BME280;10993;52.510;13.456;2024-01-25T06:30:08;56700.50;;;-146.93;67.58
21664;BME280;10993;52.510;13.456;2024-01-25T06:35:09;56718.72;;;-146.93;68.37
21664;BME280;10993;52.510;13.456;2024-01-25T06:40:11;56700.50;;;-146.93;68.43
21664;BME280;10993;52.510;13.456;2024-01-25T06:45:12;56710.63;;;-146.93;68.23
21664;BME280;10993;52.510;13.456;2024-01-25T06:50:12;56686.31;;;-146.93;67.94
21664;BME280;10993;52.510;13.456;2024-01-25T06:55:14;56708.59;;;-146.93;67.90
21664;BME280;10993;52.510;13.456;2024-01-25T07:00:15;56710.63;;;-146.93;67.92
21664;BME280;10993;52.510;13.456;2024-01-25T07:05:16;56680.25;;;-146.93;67.28
21664;BME280;10993;52.510;13.456;2024-01-25T07:10:17;56668.09;;;-146.93;67.09
21664;BME280;10993;52.510;13.456;2024-01-25T07:15:18;56680.25;;;-146.93;67.17
21664;BME280;10993;52.510;13.456;2024-01-25T07:20:18;56664.06;;;-146.93;66.53
21664;BME280;10993;52.510;13.456;2024-01-25T07:25:20;56657.97;;;-146.93;67.10
21664;BME280;10993;52.510;13.456;2024-01-25T07:30:20;56714.66;;;-146.93;68.01
21664;BME280;10993;52.510;13.456;2024-01-25T07:35:20;56670.13;;;-146.93;67.39
21664;BME280;10993;52.510;13.456;2024-01-25T07:40:24;56682.28;;;-146.93;67.76
21664;BME280;10993;52.510;13.456;2024-01-25T07:45:25;56704.53;;;-146.93;67.96
21664;BME280;10993;52.510;13.456;2024-01-25T07:50:25;56676.19;;;-146.93;67.40
21664;BME280;10993;52.510;13.456;2024-01-25T07:55:27;56666.06;;;-146.93;66.83
21664;BME280;10993;52.510;13.456;2024-01-25T08:00:27;56694.41;;;-146.93;66.18
21664;BME280;10993;52.510;13.456;2024-01-25T08:05:27;56674.19;;;-146.93;65.55
21664;BME280;10993;52.510;13.456;2024-01-25T08:10:29;56680.25;;;-146.93;65.78
21664;BME280;10993;52.510;13.456;2024-01-25T08:15:29;56694.41;;;-146.93;65.60
21664;BME280;10993;52.510;13.456;2024-01-25T08:20:30;56702.53;;;-146.93;67.61
21664;BME280;10993;52.510;13.456;2024-01-25T08:25:32;56668.09;;;-146.93;65.85
21664;BME280;10993;52.510;13.456;2024-01-25T08:30:32;56655.94;;;-146.93;63.64
21664;BME280;10993;52.510;13.456;2024-01-25T08:35:33;56690.38;;;-146.93;63.29
21664;BME280;10993;52.510;13.456;2024-01-25T08:40:34;56678.22;;;-146.93;62.48
21664;BME280;10993;52.510;13.456;2024-01-25T08:45:35;56670.13;;;-146.93;61.95
21664;BME280;10993;52.510;13.456;2024-01-25T08:50:35;56692.41;;;-146.93;58.98
21664;BME280;10993;52.510;13.456;2024-01-25T08:55:37;56645.81;;;-146.93;58.15
21664;BME280;10993;52.510;13.456;2024-01-25T09:00:37;56686.31;;;-146.93;59.37
21664;BME280;10993;52.510;13.456;2024-01-25T09:05:38;56672.16;;;-146.93;59.29
21664;BME280;10993;52.510;13.456;2024-01-25T09:10:42;56700.50;;;-146.93;60.17
21664;BME280;10993;52.510;13.456;2024-01-25T09:15:43;56678.22;;;-146.93;59.33
21664;BME280;10993;52.510;13.456;2024-01-25T09:20:44;56633.69;;;-146.93;60.76
21664;BME280;10993;52.510;13.456;2024-01-25T09:25:49;56666.06;;;-146.93;61.46
21664;BME280;10993;52.510;13.456;2024-01-25T09:30:49;56696.44;;;-146.93;62.82
21664;BME280;10993;52.510;13.456;2024-01-25T09:35:49;56645.81;;;-146.93;62.35
21664;BME280;10993;52.510;13.456;2024-01-25T09:40:51;56698.47;;;-146.93;63.37
21664;BME280;10993;52.510;13.456;2024-01-25T09:45:53;56668.09;;;-146.93;63.28
21664;BME280;10993;52.510;13.456;2024-01-25T09:50:58;56577.00;;;-146.93;63.14
21664;BME280;10993;52.510;13.456;2024-01-25T09:56:05;56712.66;;;-146.93;62.46
21664;BME280;10993;52.510;13.456;2024-01-25T10:01:08;56682.28;;;-146.93;61.97
21664;BME280;10993;52.510;13.456;2024-01-25T10:06:11;56688.34;;;-146.93;62.52
21664;BME280;10993;52.510;13.456;2024-01-25T10:11:13;56657.97;;;-146.93;62.41
21664;BME280;10993;52.510;13.456;2024-01-25T10:16:15;56686.31;;;-146.93;62.09
21664;BME280;10993;52.510;13.456;2024-01-25T10:21:16;56702.53;;;-146.93;61.32
21664;BME280;10993;52.510;13.456;2024-01-25T10:26:18;56668.09;;;-146.93;61.26
21664;BME280;10993;52.510;13.456;2024-01-25T10:31:18;56726.81;;;-146.93;61.76
21664;BME280;10993;52.510;13.456;2024-01-25T10:36:20;56728.84;;;-146.93;61.09
21664;BME280;10993;52.510;13.456;2024-01-25T10:41:23;56605.34;;;-146.93;60.05
21664;BME280;10993;52.510;13.456;2024-01-25T10:46:24;56698.47;;;-146.93;60.21
21664;BME280;10993;52.510;13.456;2024-01-25T10:51:24;56666.06;;;-146.93;59.06
21664;BME280;10993;52.510;13.456;2024-01-25T10:56:27;56666.06;;;-146.93;58.68
21664;BME280;10993;52.510;13.456;2024-01-25T11:01:28;56690.38;;;-146.93;58.38
21664;BME280;10993;52.510;13.456;2024-01-25T11:06:28;56678.22;;;-146.93;58.12
21664;BME280;10993;52.510;13.456;2024-01-25T11:11:30;56674.19;;;-146.93;56.83
21664;BME280;10993;52.510;13.456;2024-01-25T11:16:32;56678.22;;;-146.93;54.80
21664;BME280;10993;52.510;13.456;2024-01-25T11:21:41;56694.41;;;-146.93;55.93
21664;BME280;10993;52.510;13.456;2024-01-25T11:26:44;56684.31;;;-146.93;57.57
21664;BME280;10993;52.510;13.456;2024-01-25T11:31:49;56645.81;;;-146.93;55.00
21664;BME280;10993;52.510;13.456;2024-01-25T11:36:50;56676.19;;;-146.93;57.82
21664;BME280;10993;52.510;13.456;2024-01-25T11:41:54;56714.66;;;-146.93;56.42
21664;BME280;10993;52.510;13.456;2024-01-25T11:46:54;56714.66;;;-146.93;54.86
21664;BME280;10993;52.510;13.456;2024-01-25T11:51:55;56714.66;;;-146.93;53.18
21664;BME280;10993;52.510;13.456;2024-01-25T11:56:57;56690.38;;;-146.93;51.74
21664;BME280;10993;52.510;13.456;2024-01-25T12:01:57;56694.41;;;-146.93;50.31
21664;BME280;10993;52.510;13.456;2024-01-25T12:06:57;56587.13;;;-146.93;50.30
21664;BME280;10993;52.510;13.456;2024-01-25T12:12:01;56745.03;;;-146.93;47.35
21664;BME280;10993;52.510;13.456;2024-01-25T12:17:03;56680.25;;;-146.93;46.07
21664;BME280;10993;52.510;13.456;2024-01-25T12:22:04;56741.00;;;-146.93;46.67
21664;BME280;10993;52.510;13.456;2024-01-25T12:27:05;56741.00;;;-146.93;45.00
21664;BME280;10993;52.510;13.456;2024-01-25T12:32:06;56767.31;;;-146.93;45.11
21664;BME280;10993;52.510;13.456;2024-01-25T12:37:06;56688.34;;;-146.93;47.37
21664;BME280;10993;52.510;13.456;2024-01-25T12:42:08;56678.22;;;-146.93;50.26
21664;BME280;10993;52.510;13.456;2024-01-25T12:47:08;56647.84;;;-146.93;51.23
21664;BME280;10993;52.510;13.456;2024-01-25T12:52:09;56605.34;;;-146.93;52.25
21664;BME280;10993;52.510;13.456;2024-01-25T12:57:11;56647.84;;;-146.93;52.16
21664;BME280;10993;52.510;13.456;2024-01-25T13:02:12;56706.56;;;-146.93;52.80
21664;BME280;10993;52.510;13.456;2024-01-25T13:07:12;56686.31;;;-146.93;54.71
21664;BME280;10993;52.510;13.456;2024-01-25T13:12:14;56690.38;;;-146.93;56.08
21664;BME280;10993;52.510;13.456;2024-01-25T13:17:14;56674.19;;;-146.93;57.40
21664;BME280;10993;52.510;13.456;2024-01-25T13:22:15;56702.53;;;-146.93;61.00
21664;BME280;10993;52.510;13.456;2024-01-25T13:27:18;56633.69;;;-146.93;62.67
21664;BME280;10993;52.510;13.456;2024-01-25T13:32:18;56674.19;;;-146.93;61.14
21664;BME280;10993;52.510;13.456;2024-01-25T13:37:19;56666.06;;;-146.93;61.43
21664;BME280;10993;52.510;13.456;2024-01-25T13:42:20;56643.81;;;-146.93;61.14
21664;BME280;10993;52.510;13.456;2024-01-25T13:47:21;56629.63;;;-146.93;62.43
21664;BME280;10993;52.510;13.456;2024-01-25T13:52:22;56682.28;;;-146.93;63.05
21664;BME280;10993;52.510;13.456;2024-01-25T13:57:24;56623.56;;;-146.93;60.62
21664;BME280;10993;52.510;13.456;2024-01-25T14:02:24;56698.47;;;-146.93;60.34
21664;BME280;10993;52.510;13.456;2024-01-25T14:07:25;56664.06;;;-146.93;60.57
21664;BME280;10993;52.510;13.456;2024-01-25T14:12:26;56690.38;;;-146.93;61.94
21664;BME280;10993;52.510;13.456;2024-01-25T14:17:27;56670.13;;;-146.93;59.97
21664;BME280;10993;52.510;13.456;2024-01-25T14:22:27;56643.81;;;-146.93;59.06
21664;BME280;10993;52.510;13.456;2024-01-25T14:27:29;56961.69;;;-146.93;59.38
21664;BME280;10993;52.510;13.456;2024-01-25T14:32:30;56619.50;;;-146.93;59.88
21664;BME280;10993;52.510;13.456;2024-01-25T14:37:30;56676.19;;;-146.93;60.76
21664;BME280;10993;52.510;13.456;2024-01-25T14:42:33;56643.81;;;-146.93;60.73
21664;BME280;10993;52.510;13.456;2024-01-25T14:47:33;56639.75;;;-146.93;61.76
21664;BME280;10993;52.510;13.456;2024-01-25T14:52:34;56635.72;;;-146.93;62.40
21664;BME280;10993;52.510;13.456;2024-01-25T14:57:35;56587.13;;;-146.93;62.66
21664;BME280;10993;52.510;13.456;2024-01-25T15:02:36;56657.97;;;-146.93;63.23
21664;BME280;10993;52.510;13.456;2024-01-25T15:07:36;57085.22;;;-146.93;63.05
21664;BME280;10993;52.510;13.456;2024-01-25T15:12:38;56643.81;;;-146.93;63.92
21664;BME280;10993;52.510;13.456;2024-01-25T15:17:39;56595.22;;;-146.93;65.11
21664;BME280;10993;52.510;13.456;2024-01-25T15:22:40;56678.22;;;-146.93;66.19
21664;BME280;10993;52.510;13.456;2024-01-25T15:27:42;56564.84;;;-146.93;65.98
21664;BME280;10993;52.510;13.456;2024-01-25T15:32:42;58116.13;;;-146.93;66.21
21664;BME280;10993;52.510;13.456;2024-01-25T15:37:42;56690.38;;;-146.93;66.03
21664;BME280;10993;52.510;13.456;2024-01-25T15:42:44;56657.97;;;-146.93;66.24
21664;BME280;10993;52.510;13.456;2024-01-25T15:47:45;56674.19;;;-146.93;66.12
21664;BME280;10993;52.510;13.456;2024-01-25T15:52:45;56651.91;;;-146.93;66.52
21664;BME280;10993;52.510;13.456;2024-01-25T15:57:47;56674.19;;;-146.93;66.08
21664;BME280;10993;52.510;13.456;2024-01-25T16:02:47;56668.09;;;-146.93;67.06
21664;BME280;10993;52.510;13.456;2024-01-25T16:07:48;56674.19;;;-146.93;67.17
21664;BME280;10993;52.510;13.456;2024-01-25T16:12:50;56666.06;;;-146.93;66.73
21664;BME280;10993;52.510;13.456;2024-01-25T16:17:51;56672.16;;;-146.93;67.62
21664;BME280;10993;52.510;13.456;2024-01-25T16:22:51;56674.19;;;-146.93;67.78
21664;BME280;10993;52.510;13.456;2024-01-25T16:27:53;56670.13;;;-146.93;67.26
21664;BME280;10993;52.510;13.456;2024-01-25T16:32:54;56660.00;;;-146.93;67.56
21664;BME280;10993;52.510;13.456;2024-01-25T16:37:54;56653.94;;;-146.93;68.19
21664;BME280;10993;52.510;13.456;2024-01-25T16:42:56;56662.03;;;-146.93;68.49
21664;BME280;10993;52.510;13.456;2024-01-25T16:47:56;56660.00;;;-146.93;69.26
21664;BME280;10993;52.510;13.456;2024-01-25T16:52:56;56670.13;;;-146.93;70.14
21664;BME280;10993;52.510;13.456;2024-01-25T16:57:59;56688.34;;;-146.93;70.29
21664;BME280;10993;52.510;13.456;2024-01-25T17:03:00;56700.50;;;-146.93;70.62
21664;BME280;10993;52.510;13.456;2024-01-25T17:08:01;56672.16;;;-146.93;69.84
21664;BME280;10993;52.510;13.456;2024-01-25T17:13:03;56692.41;;;-146.93;70.36
21664;BME280;10993;52.510;13.456;2024-01-25T17:18:04;56694.41;;;-146.93;70.48
21664;BME280;10993;52.510;13.456;2024-01-25T17:23:04;56660.00;;;-146.93;70.66
21664;BME280;10993;52.510;13.456;2024-01-25T17:28:06;56613.44;;;-146.93;71.02
21664;BME280;10993;52.510;13.456;2024-01-25T17:33:06;56698.47;;;-146.93;71.16
21664;BME280;10993;52.510;13.456;2024-01-25T17:38:07;56670.13;;;-146.93;70.39
21664;BME280;10993;52.510;13.456;2024-01-25T17:43:09;56674.19;;;-146.93;71.78
21664;BME280;10993;52.510;13.456;2024-01-25T17:48:09;56688.34;;;-146.93;71.60
21664;BME280;10993;52.510;13.456;2024-01-25T17:53:10;56736.94;;;-146.93;71.54
21664;BME280;10993;52.510;13.456;2024-01-25T17:58:12;56690.38;;;-146.93;71.31
21664;BME280;10993;52.510;13.456;2024-01-25T18:03:12;56649.88;;;-146.93;72.58
21664;BME280;10993;52.510;13.456;2024-01-25T18:08:12;56678.22;;;-146.93;72.91
21664;BME280;10993;52.510;13.456;2024-01-25T18:13:14;56706.56;;;-146.93;72.99
21664;BME280;10993;52.510;13.456;2024-01-25T18:18:14;56690.38;;;-146.93;73.94
21664;BME280;10993;52.510;13.456;2024-01-25T18:23:15;56720.75;;;-146.93;74.19
21664;BME280;10993;52.510;13.456;2024-01-25T18:28:16;56726.81;;;-146.93;73.91
21664;BME280;10993;52.510;13.456;2024-01-25T18:33:18;56556.75;;;-146.93;73.95
21664;BME280;10993;52.510;13.456;2024-01-25T18:38:18;56710.63;;;-146.93;74.68
21664;BME280;10993;52.510;13.456;2024-01-25T18:43:20;56724.78;;;-146.93;74.49
21664;BME280;10993;52.510;13.456;2024-01-25T18:48:20;57551.00;;;-146.93;74.81
21664;BME280;10993;52.510;13.456;2024-01-25T18:53:21;56678.22;;;-146.93;75.29
21664;BME280;10993;52.510;13.456;2024-01-25T18:58:24;56743.03;;;-146.93;74.95
21664;BME280;10993;52.510;13.456;2024-01-25T19:03:26;56738.97;;;-146.93;75.66
21664;BME280;10993;52.510;13.456;2024-01-25T19:08:27;56734.91;;;-146.93;75.78
21664;BME280;10993;52.510;13.456;2024-01-25T19:13:29;56700.50;;;-146.93;75.54
21664;BME280;10993;52.510;13.456;2024-01-25T19:18:29;56757.19;;;-146.93;77.28
21664;BME280;10993;52.510;13.456;2024-01-25T19:23:30;56700.50;;;-146.93;76.80
21664;BME280;10993;52.510;13.456;2024-01-25T19:28:32;56783.50;;;-146.93;78.71
21664;BME280;10993;52.510;13.456;2024-01-25T19:33:34;56690.38;;;-146.93;79.45
21664;BME280;10993;52.510;13.456;2024-01-25T19:38:34;56743.03;;;-146.93;79.45
21664;BME280;10993;52.510;13.456;2024-01-25T19:43:39;56822.00;;;-146.93;80.40
21664;BME280;10993;52.510;13.456;2024-01-25T19:48:40;56828.06;;;-146.93;80.63
21664;BME280;10993;52.510;13.456;2024-01-25T19:53:40;56779.47;;;-146.93;80.35
21664;BME280;10993;52.510;13.456;2024-01-25T19:58:43;56803.75;;;-146.93;79.37
21664;BME280;10993;52.510;13.456;2024-01-25T20:03:44;56672.16;;;-146.93;79.55
21664;BME280;10993;52.510;13.456;2024-01-25T20:08:45;56824.00;;;-146.93;80.30
21664;BME280;10993;52.510;13.456;2024-01-25T20:13:46;56805.78;;;-146.93;80.01
21664;BME280;10993;52.510;13.456;2024-01-25T20:18:47;56866.53;;;-146.93;80.21
21664;BME280;10993;52.510;13.456;2024-01-25T20:23:48;56824.00;;;-146.93;80.59
21664;BME280;10993;52.510;13.456;2024-01-25T20:28:49;56765.28;;;-146.93;80.67
21664;BME280;10993;52.510;13.456;2024-01-25T20:33:50;56805.78;;;-146.93;81.66
21664;BME280;10993;52.510;13.456;2024-01-25T20:38:51;56769.34;;;-146.93;81.23
21664;BME280;10993;52.510;13.456;2024-01-25T20:43:55;56738.97;;;-146.93;81.96
21664;BME280;10993;52.510;13.456;2024-01-25T20:48:56;56832.13;;;-146.93;83.08
21664;BME280;10993;52.510;13.456;2024-01-25T20:53:56;56874.63;;;-146.93;83.49
21664;BME280;10993;52.510;13.456;2024-01-25T20:58:58;56807.81;;;-146.93;84.67
21664;BME280;10993;52.510;13.456;2024-01-25T21:04:04;57733.28;;;-146.93;86.20
21664;BME280;10993;52.510;13.456;2024-01-25T21:09:05;57024.47;;;-146.93;87.09
21664;BME280;10993;52.510;13.456;2024-01-25T21:14:10;57067.00;;;-146.93;87.69
21664;BME280;10993;52.510;13.456;2024-01-25T21:19:11;56876.66;;;-146.93;88.49
21664;BME280;10993;52.510;13.456;2024-01-25T21:24:11;57168.25;;;-146.93;88.83
21664;BME280;10993;52.510;13.456;2024-01-25T21:29:13;57208.75;;;-146.93;89.56
21664;BME280;10993;52.510;13.456;2024-01-25T21:34:14;57152.06;;;-146.93;89.55
21664;BME280;10993;52.510;13.456;2024-01-25T21:39:14;57310.00;;;-146.93;90.97
21664;BME280;10993;52.510;13.456;2024-01-25T21:44:18;57295.84;;;-146.93;90.57
21664;BME280;10993;52.510;13.456;2024-01-25T21:49:19;56840.22;;;-146.93;91.13
21664;BME280;10993;52.510;13.456;2024-01-25T21:54:19;57382.91;;;-146.93;91.43
21664;BME280;10993;52.510;13.456;2024-01-25T21:59:21;57362.66;;;-146.93;91.50
21664;BME280;10993;52.510;13.456;2024-01-25T22:04:21;57391.00;;;-146.93;92.14
21664;BME280;10993;52.510;13.456;2024-01-25T22:09:23;57506.44;;;-146.93;92.36
21664;BME280;10993;52.510;13.456;2024-01-25T22:14:25;57419.38;;;-146.93;93.11
21664;BME280;10993;52.510;13.456;2024-01-25T22:19:25;57597.59;;;-146.93;92.74
21664;BME280;10993;52.510;13.456;2024-01-25T22:24:26;57504.44;;;-146.93;92.89
21664;BME280;10993;52.510;13.456;2024-01-25T22:29:27;57544.94;;;-146.93;93.21
21664;BME280;10993;52.510;13.456;2024-01-25T22:34:28;57662.41;;;-146.93;94.06
21664;BME280;10993;52.510;13.456;2024-01-25T22:39:28;57808.22;;;-146.93;94.80
21664;BME280;10993;52.510;13.456;2024-01-25T22:44:30;57860.91;;;-146.93;94.53
21664;BME280;10993;52.510;13.456;2024-01-25T22:49:30;57818.34;;;-146.93;94.84
21664;BME280;10993;52.510;13.456;2024-01-25T22:54:30;57889.25;;;-146.93;95.00
21664;BME280;10993;52.510;13.456;2024-01-25T22:59:32;57943.94;;;-146.93;94.95
21664;BME280;10993;52.510;13.456;2024-01-25T23:04:32;57962.16;;;-146.93;95.26
21664;BME280;10993;52.510;13.456;2024-01-25T23:09:33;58108.00;;;-146.93;95.50
21664;BME280;10993;52.510;13.456;2024-01-25T23:14:35;58045.22;;;-146.93;95.36
21664;BME280;10993;52.510;13.456;2024-01-25T23:19:35;58180.94;;;-146.93;96.38
21664;BME280;10993;52.510;13.456;2024-01-25T23:24:36;58051.28;;;-146.93;95.40
21664;BME280;10993;52.510;13.456;2024-01-25T23:29:37;58184.97;;;-146.93;95.45
21664;BME280;10993;52.510;13.456;2024-01-25T23:34:38;57948.00;;;-146.93;94.92
21664;BME280;10993;52.510;13.456;2024-01-25T23:39:38;58083.69;;;-146.93;94.67
21664;BME280;10993;52.510;13.456;2024-01-25T23:44:40;58742.09;;;-146.93;94.90
21664;BME280;10993;52.510;13.456;2024-01-25T23:49:40;58010.78;;;-146.93;95.12
21664;BME280;10993;52.510;13.456;2024-01-25T23:54:41;58093.84;;;-146.93;95.32
21664;BME280;10993;52.510;13.456;2024-01-25T23:59:42;58182.97;;;-146.93;95.86
